Terminal Aerodrome Forecast
Issued by NWS

Home | Current Version | Previous Version | Text Only | Print | Product List | Glossary On
Versions: 1 2 3 4 5 6 7 8 9 10 11 12 13 14 15 16 17 18
538
FTUS42 KTAE 261124 CCA
TAFECP
TAF COR
KECP 261124Z 2612/2712 33003KT 6SM BR SCT002
      TEMPO 2612/2613 00000KT 1/4SM FG BKN002
     FM261300 33004KT P6SM SCT015
     FM262000 23008KT P6SM TSRA BKN030CB
     FM262300 18003KT P6SM SCT040 BKN250=

USA.gov is the U.S. government's official web portal to all federal, state and local government web resources and services.